sensor_id;sensor_type;location;lat;lon;timestamp;pressure;altitude;pressure_sealevel;temperature;humidity
55914;BME280;58179;48.776;9.124;2023-09-07T00:00:05;97663.41;;;16.37;100.00
55914;BME280;58179;48.776;9.124;2023-09-07T00:02:36;97651.38;;;16.34;100.00
55914;BME280;58179;48.776;9.124;2023-09-07T00:05:03;97658.06;;;16.32;100.00
55914;BME280;58179;48.776;9.124;2023-09-07T00:07:32;97652.50;;;16.28;100.00
55914;BME280;58179;48.776;9.124;2023-09-07T00:09:58;97652.00;;;16.26;100.00
55914;BME280;58179;48.776;9.124;2023-09-07T00:12:24;97651.47;;;16.24;100.00
55914;BME280;58179;48.776;9.124;2023-09-07T00:14:51;97655.00;;;16.19;100.00
55914;BME280;58179;48.776;9.124;2023-09-07T00:17:19;97654.47;;;16.17;100.00
55914;BME280;58179;48.776;9.124;2023-09-07T00:19:45;97647.25;;;16.18;100.00
55914;BME280;58179;48.776;9.124;2023-09-07T00:22:15;97662.53;;;16.12;100.00
55914;BME280;58179;48.776;9.124;2023-09-07T00:24:42;97659.34;;;16.10;100.00
55914;BME280;58179;48.776;9.124;2023-09-07T00:27:08;97661.78;;;16.07;100.00
55914;BME280;58179;48.776;9.124;2023-09-07T00:29:37;97662.59;;;16.02;100.00
55914;BME280;58179;48.776;9.124;2023-09-07T00:32:04;97652.22;;;16.01;100.00
55914;BME280;58179;48.776;9.124;2023-09-07T00:34:32;97650.09;;;15.98;100.00
55914;BME280;58179;48.776;9.124;2023-09-07T00:36:59;97648.28;;;15.93;100.00
55914;BME280;58179;48.776;9.124;2023-09-07T00:39:26;97653.34;;;15.90;100.00
55914;BME280;58179;48.776;9.124;2023-09-07T00:41:52;97652.84;;;15.87;100.00
55914;BME280;58179;48.776;9.124;2023-09-07T00:44:18;97651.53;;;15.85;100.00
55914;BME280;58179;48.776;9.124;2023-09-07T00:46:44;97653.94;;;15.81;100.00
55914;BME280;58179;48.776;9.124;2023-09-07T00:49:11;97652.13;;;15.77;100.00
55914;BME280;58179;48.776;9.124;2023-09-07T00:51:39;97647.84;;;15.76;100.00
55914;BME280;58179;48.776;9.124;2023-09-07T00:54:06;97656.13;;;15.74;100.00
55914;BME280;58179;48.776;9.124;2023-09-07T00:56:32;97648.13;;;15.74;100.00
55914;BME280;58179;48.776;9.124;2023-09-07T00:58:59;97649.47;;;15.72;100.00
55914;BME280;58179;48.776;9.124;2023-09-07T01:01:26;97654.00;;;15.71;100.00
55914;BME280;58179;48.776;9.124;2023-09-07T01:03:52;97658.03;;;15.69;100.00
55914;BME280;58179;48.776;9.124;2023-09-07T01:06:22;97658.03;;;15.69;100.00
55914;BME280;58179;48.776;9.124;2023-09-07T01:08:55;97653.78;;;15.68;100.00
55914;BME280;58179;48.776;9.124;2023-09-07T01:11:23;97653.25;;;15.66;100.00
55914;BME280;58179;48.776;9.124;2023-09-07T01:13:50;97647.69;;;15.62;100.00
55914;BME280;58179;48.776;9.124;2023-09-07T01:16:18;97647.16;;;15.60;100.00
55914;BME280;58179;48.776;9.124;2023-09-07T01:18:46;97650.91;;;15.59;100.00
55914;BME280;58179;48.776;9.124;2023-09-07T01:21:13;97645.03;;;15.57;100.00
55914;BME280;58179;48.776;9.124;2023-09-07T01:23:42;97641.56;;;15.57;100.00
55914;BME280;58179;48.776;9.124;2023-09-07T01:26:10;97645.31;;;15.56;100.00
55914;BME280;58179;48.776;9.124;2023-09-07T01:28:37;97653.84;;;15.53;100.00
55914;BME280;58179;48.776;9.124;2023-09-07T01:31:04;97648.78;;;15.51;100.00
55914;BME280;58179;48.776;9.124;2023-09-07T01:33:30;97642.41;;;15.47;100.00
55914;BME280;58179;48.776;9.124;2023-09-07T01:35:57;97645.34;;;15.45;100.00
55914;BME280;58179;48.776;9.124;2023-09-07T01:38:23;97638.94;;;15.41;100.00
55914;BME280;58179;48.776;9.124;2023-09-07T01:40:51;97637.91;;;15.37;100.00
55914;BME280;58179;48.776;9.124;2023-09-07T01:43:17;97638.75;;;15.33;100.00
55914;BME280;58179;48.776;9.124;2023-09-07T01:45:43;97634.75;;;15.30;100.00
55914;BME280;58179;48.776;9.124;2023-09-07T01:48:10;97644.09;;;15.28;100.00
55914;BME280;58179;48.776;9.124;2023-09-07T01:50:36;97639.59;;;15.23;100.00
55914;BME280;58179;48.776;9.124;2023-09-07T01:53:03;97648.13;;;15.20;100.00
55914;BME280;58179;48.776;9.124;2023-09-07T01:55:32;97647.63;;;15.18;100.00
55914;BME280;58179;48.776;9.124;2023-09-07T01:57:59;97652.97;;;15.18;100.00
55914;BME280;58179;48.776;9.124;2023-09-07T02:00:27;97647.91;;;15.17;100.00
55914;BME280;58179;48.776;9.124;2023-09-07T02:02:53;97644.44;;;15.16;100.00
55914;BME280;58179;48.776;9.124;2023-09-07T02:05:19;97650.03;;;15.15;100.00
55914;BME280;58179;48.776;9.124;2023-09-07T02:07:47;97649.22;;;15.14;100.00
55914;BME280;58179;48.776;9.124;2023-09-07T02:10:15;97650.88;;;15.10;100.00
55914;BME280;58179;48.776;9.124;2023-09-07T02:12:42;97645.53;;;15.05;100.00
55914;BME280;58179;48.776;9.124;2023-09-07T02:15:10;97654.34;;;15.05;100.00
55914;BME280;58179;48.776;9.124;2023-09-07T02:17:37;97649.00;;;15.05;100.00
55914;BME280;58179;48.776;9.124;2023-09-07T02:20:04;97642.06;;;15.04;100.00
55914;BME280;58179;48.776;9.124;2023-09-07T02:22:36;97646.34;;;15.05;100.00
55914;BME280;58179;48.776;9.124;2023-09-07T02:25:03;97641.28;;;15.04;100.00
55914;BME280;58179;48.776;9.124;2023-09-07T02:27:31;97643.16;;;15.03;100.00
55914;BME280;58179;48.776;9.124;2023-09-07T02:29:58;97649.84;;;15.01;100.00
55914;BME280;58179;48.776;9.124;2023-09-07T02:32:25;97643.16;;;14.98;100.00
55914;BME280;58179;48.776;9.124;2023-09-07T02:34:51;97639.97;;;14.96;100.00
55914;BME280;58179;48.776;9.124;2023-09-07T02:37:18;97640.53;;;14.93;100.00
55914;BME280;58179;48.776;9.124;2023-09-07T02:39:44;97636.53;;;14.91;100.00
55914;BME280;58179;48.776;9.124;2023-09-07T02:42:10;97645.59;;;14.90;100.00
55914;BME280;58179;48.776;9.124;2023-09-07T02:44:36;97646.94;;;14.87;100.00
55914;BME280;58179;48.776;9.124;2023-09-07T02:47:04;97639.22;;;14.86;100.00
55914;BME280;58179;48.776;9.124;2023-09-07T02:49:34;97638.69;;;14.84;100.00
55914;BME280;58179;48.776;9.124;2023-09-07T02:52:00;97643.22;;;14.83;100.00
55914;BME280;58179;48.776;9.124;2023-09-07T02:54:26;97638.16;;;14.82;100.00
55914;BME280;58179;48.776;9.124;2023-09-07T02:56:53;97641.63;;;14.82;100.00
55914;BME280;58179;48.776;9.124;2023-09-07T02:59:19;97639.25;;;14.81;100.00
55914;BME280;58179;48.776;9.124;2023-09-07T03:01:46;97635.25;;;14.78;100.00
55914;BME280;58179;48.776;9.124;2023-09-07T03:04:12;97632.06;;;14.76;100.00
55914;BME280;58179;48.776;9.124;2023-09-07T03:06:39;97623.53;;;14.74;100.00
55914;BME280;58179;48.776;9.124;2023-09-07T03:09:05;97638.22;;;14.71;100.00
55914;BME280;58179;48.776;9.124;2023-09-07T03:11:36;97635.28;;;14.68;100.00
55914;BME280;58179;48.776;9.124;2023-09-07T03:14:02;97632.38;;;14.64;100.00
55914;BME280;58179;48.776;9.124;2023-09-07T03:16:28;97639.03;;;14.62;100.00
55914;BME280;58179;48.776;9.124;2023-09-07T03:18:56;97629.69;;;14.59;100.00
55914;BME280;58179;48.776;9.124;2023-09-07T03:21:22;97632.66;;;14.58;100.00
55914;BME280;58179;48.776;9.124;2023-09-07T03:23:53;97632.13;;;14.56;100.00
55914;BME280;58179;48.776;9.124;2023-09-07T03:26:19;97633.97;;;14.55;100.00
55914;BME280;58179;48.776;9.124;2023-09-07T03:28:45;97635.31;;;14.53;100.00
55914;BME280;58179;48.776;9.124;2023-09-07T03:31:12;97632.13;;;14.51;100.00
55914;BME280;58179;48.776;9.124;2023-09-07T03:33:38;97626.28;;;14.49;100.00
55914;BME280;58179;48.776;9.124;2023-09-07T03:36:04;97633.72;;;14.47;100.00
55914;BME280;58179;48.776;9.124;2023-09-07T03:38:31;97633.19;;;14.45;100.00
55914;BME280;58179;48.776;9.124;2023-09-07T03:40:58;97632.69;;;14.43;100.00
55914;BME280;58179;48.776;9.124;2023-09-07T03:43:24;97624.91;;;14.36;100.00
55914;BME280;58179;48.776;9.124;2023-09-07T03:45:50;97622.53;;;14.34;100.00
55914;BME280;58179;48.776;9.124;2023-09-07T03:48:17;97631.06;;;14.31;100.00
55914;BME280;58179;48.776;9.124;2023-09-07T03:50:43;97626.25;;;14.28;100.00
55914;BME280;58179;48.776;9.124;2023-09-07T03:53:09;97628.66;;;14.30;100.00
55914;BME280;58179;48.776;9.124;2023-09-07T03:55:41;97632.91;;;14.31;100.00
55914;BME280;58179;48.776;9.124;2023-09-07T03:58:09;97625.19;;;14.29;100.00
55914;BME280;58179;48.776;9.124;2023-09-07T04:00:38;97625.19;;;14.29;100.00
55914;BME280;58179;48.776;9.124;2023-09-07T04:03:05;97623.59;;;14.28;100.00
55914;BME280;58179;48.776;9.124;2023-09-07T04:05:31;97621.72;;;14.29;100.00
55914;BME280;58179;48.776;9.124;2023-09-07T04:07:58;97625.50;;;14.28;100.00
55914;BME280;58179;48.776;9.124;2023-09-07T04:10:24;97620.16;;;14.28;100.00
55914;BME280;58179;48.776;9.124;2023-09-07T04:12:50;97625.22;;;14.24;100.00
55914;BME280;58179;48.776;9.124;2023-09-07T04:15:18;97620.69;;;14.20;100.00
55914;BME280;58179;48.776;9.124;2023-09-07T04:17:44;97626.28;;;14.18;100.00
55914;BME280;58179;48.776;9.124;2023-09-07T04:20:11;97628.41;;;14.16;100.00
55914;BME280;58179;48.776;9.124;2023-09-07T04:22:39;97628.69;;;14.15;100.00
55914;BME280;58179;48.776;9.124;2023-09-07T04:25:07;97621.75;;;14.14;100.00
55914;BME280;58179;48.776;9.124;2023-09-07T04:27:33;97625.75;;;14.11;100.00
55914;BME280;58179;48.776;9.124;2023-09-07T04:29:59;97618.03;;;14.10;100.00
55914;BME280;58179;48.776;9.124;2023-09-07T04:32:27;97619.38;;;14.07;100.00
55914;BME280;58179;48.776;9.124;2023-09-07T04:34:54;97617.00;;;14.06;100.00
55914;BME280;58179;48.776;9.124;2023-09-07T04:37:21;97618.56;;;14.02;100.00
55914;BME280;58179;48.776;9.124;2023-09-07T04:39:49;97623.34;;;14.00;100.00
55914;BME280;58179;48.776;9.124;2023-09-07T04:42:15;97622.31;;;13.95;100.00
55914;BME280;58179;48.776;9.124;2023-09-07T04:44:41;97620.72;;;13.94;100.00
55914;BME280;58179;48.776;9.124;2023-09-07T04:47:07;97616.72;;;13.92;100.00
55914;BME280;58179;48.776;9.124;2023-09-07T04:49:35;97623.88;;;13.91;100.00
55914;BME280;58179;48.776;9.124;2023-09-07T04:52:01;97615.41;;;13.89;100.00
55914;BME280;58179;48.776;9.124;2023-09-07T04:54:27;97626.31;;;13.88;100.00
55914;BME280;58179;48.776;9.124;2023-09-07T04:56:54;97631.38;;;13.89;100.00
55914;BME280;58179;48.776;9.124;2023-09-07T04:59:20;97627.09;;;13.88;100.00
55914;BME280;58179;48.776;9.124;2023-09-07T05:01:46;97628.97;;;13.88;100.00
55914;BME280;58179;48.776;9.124;2023-09-07T05:04:12;97630.81;;;13.87;100.00
55914;BME280;58179;48.776;9.124;2023-09-07T05:06:40;97631.63;;;13.88;100.00
55914;BME280;58179;48.776;9.124;2023-09-07T05:09:07;97635.34;;;13.87;100.00
55914;BME280;58179;48.776;9.124;2023-09-07T05:11:34;97634.28;;;13.88;100.00
55914;BME280;58179;48.776;9.124;2023-09-07T05:14:01;97640.41;;;13.88;100.00
55914;BME280;58179;48.776;9.124;2023-09-07T05:16:27;97647.34;;;13.89;100.00
55914;BME280;58179;48.776;9.124;2023-09-07T05:18:54;97648.13;;;13.90;100.00
55914;BME280;58179;48.776;9.124;2023-09-07T05:21:20;97647.34;;;13.89;100.00
55914;BME280;58179;48.776;9.124;2023-09-07T05:23:47;97644.94;;;13.88;100.00
55914;BME280;58179;48.776;9.124;2023-09-07T05:26:14;97650.00;;;13.89;100.00
55914;BME280;58179;48.776;9.124;2023-09-07T05:28:40;97656.91;;;13.90;100.00
55914;BME280;58179;48.776;9.124;2023-09-07T05:31:09;97660.34;;;13.91;100.00
55914;BME280;58179;48.776;9.124;2023-09-07T05:33:36;97660.63;;;13.94;100.00
55914;BME280;58179;48.776;9.124;2023-09-07T05:36:02;97660.63;;;13.94;100.00
55914;BME280;58179;48.776;9.124;2023-09-07T05:38:28;97667.28;;;13.97;100.00
55914;BME280;58179;48.776;9.124;2023-09-07T05:40:56;97664.88;;;14.01;100.00
55914;BME280;58179;48.776;9.124;2023-09-07T05:43:22;97668.09;;;14.03;100.00
55914;BME280;58179;48.776;9.124;2023-09-07T05:45:48;97660.66;;;14.05;100.00
55914;BME280;58179;48.776;9.124;2023-09-07T05:48:14;97660.91;;;14.08;100.00
55914;BME280;58179;48.776;9.124;2023-09-07T05:50:44;97660.38;;;14.11;100.00
55914;BME280;58179;48.776;9.124;2023-09-07T05:53:10;97660.63;;;14.15;100.00
55914;BME280;58179;48.776;9.124;2023-09-07T05:55:36;97662.50;;;14.19;100.00
55914;BME280;58179;48.776;9.124;2023-09-07T05:58:06;97663.56;;;14.23;100.00
55914;BME280;58179;48.776;9.124;2023-09-07T06:00:33;97665.44;;;14.28;100.00
55914;BME280;58179;48.776;9.124;2023-09-07T06:02:59;97665.41;;;14.33;100.00
55914;BME280;58179;48.776;9.124;2023-09-07T06:05:26;97660.91;;;14.39;100.00
55914;BME280;58179;48.776;9.124;2023-09-07T06:07:53;97665.94;;;14.45;100.00
55914;BME280;58179;48.776;9.124;2023-09-07T06:10:19;97658.78;;;14.51;100.00
55914;BME280;58179;48.776;9.124;2023-09-07T06:12:45;97666.75;;;14.56;100.00
55914;BME280;58179;48.776;9.124;2023-09-07T06:15:13;97657.13;;;14.60;100.00
55914;BME280;58179;48.776;9.124;2023-09-07T06:17:39;97664.03;;;14.66;100.00
55914;BME280;58179;48.776;9.124;2023-09-07T06:20:06;97663.25;;;14.70;100.00
55914;BME280;58179;48.776;9.124;2023-09-07T06:22:33;97665.91;;;14.76;100.00
55914;BME280;58179;48.776;9.124;2023-09-07T06:24:59;97664.31;;;14.80;100.00
55914;BME280;58179;48.776;9.124;2023-09-07T06:27:25;97660.00;;;14.84;100.00
55914;BME280;58179;48.776;9.124;2023-09-07T06:29:51;97657.06;;;14.90;100.00
55914;BME280;58179;48.776;9.124;2023-09-07T06:32:19;97662.91;;;14.97;100.00
55914;BME280;58179;48.776;9.124;2023-09-07T06:34:45;97657.00;;;15.05;100.00
55914;BME280;58179;48.776;9.124;2023-09-07T06:37:12;97658.56;;;15.17;100.00
55914;BME280;58179;48.776;9.124;2023-09-07T06:39:38;97658.50;;;15.27;100.00
55914;BME280;58179;48.776;9.124;2023-09-07T06:42:04;97657.66;;;15.36;100.00
55914;BME280;58179;48.776;9.124;2023-09-07T06:44:33;97663.75;;;15.47;100.00
55914;BME280;58179;48.776;9.124;2023-09-07T06:46:59;97655.69;;;15.57;100.00
55914;BME280;58179;48.776;9.124;2023-09-07T06:49:27;97661.00;;;15.67;100.00
55914;BME280;58179;48.776;9.124;2023-09-07T06:51:55;97654.78;;;15.77;100.00
55914;BME280;58179;48.776;9.124;2023-09-07T06:54:22;97663.50;;;15.87;100.00
55914;BME280;58179;48.776;9.124;2023-09-07T06:56:48;97663.72;;;15.96;100.00
55914;BME280;58179;48.776;9.124;2023-09-07T06:59:14;97668.47;;;16.04;100.00
55914;BME280;58179;48.776;9.124;2023-09-07T07:01:40;97671.34;;;16.13;100.00
55914;BME280;58179;48.776;9.124;2023-09-07T07:04:06;97672.63;;;16.20;100.00
55914;BME280;58179;48.776;9.124;2023-09-07T07:06:35;97672.81;;;16.29;100.00
55914;BME280;58179;48.776;9.124;2023-09-07T07:09:02;97671.41;;;16.37;100.00
55914;BME280;58179;48.776;9.124;2023-09-07T07:11:28;97682.78;;;16.47;100.00
55914;BME280;58179;48.776;9.124;2023-09-07T07:13:54;97684.84;;;16.55;100.00
55914;BME280;58179;48.776;9.124;2023-09-07T07:16:20;97685.59;;;16.66;100.00
55914;BME280;58179;48.776;9.124;2023-09-07T07:18:47;97680.94;;;16.77;100.00
55914;BME280;58179;48.776;9.124;2023-09-07T07:21:13;97684.28;;;16.87;100.00
55914;BME280;58179;48.776;9.124;2023-09-07T07:23:40;97685.50;;;17.00;100.00
55914;BME280;58179;48.776;9.124;2023-09-07T07:26:07;97684.03;;;17.13;100.00
55914;BME280;58179;48.776;9.124;2023-09-07T07:28:34;97674.50;;;17.25;100.00
55914;BME280;58179;48.776;9.124;2023-09-07T07:31:07;97682.63;;;17.39;100.00
55914;BME280;58179;48.776;9.124;2023-09-07T07:33:35;97682.69;;;17.53;100.00
55914;BME280;58179;48.776;9.124;2023-09-07T07:36:01;97680.94;;;17.67;100.00
55914;BME280;58179;48.776;9.124;2023-09-07T07:38:28;97681.81;;;17.81;100.00
55914;BME280;58179;48.776;9.124;2023-09-07T07:40:55;97677.59;;;17.94;100.00
55914;BME280;58179;48.776;9.124;2023-09-07T07:43:22;97679.81;;;18.05;100.00
55914;BME280;58179;48.776;9.124;2023-09-07T07:45:48;97683.94;;;18.16;100.00
55914;BME280;58179;48.776;9.124;2023-09-07T07:48:14;97684.09;;;18.25;100.00
55914;BME280;58179;48.776;9.124;2023-09-07T07:50:42;97687.38;;;18.36;100.00
55914;BME280;58179;48.776;9.124;2023-09-07T07:53:09;97687.22;;;18.46;100.00
55914;BME280;58179;48.776;9.124;2023-09-07T07:55:36;97682.19;;;18.58;100.00
55914;BME280;58179;48.776;9.124;2023-09-07T07:58:06;97683.91;;;18.68;100.00
55914;BME280;58179;48.776;9.124;2023-09-07T08:00:34;97683.22;;;18.76;100.00
55914;BME280;58179;48.776;9.124;2023-09-07T08:03:01;97679.56;;;18.85;100.00
55914;BME280;58179;48.776;9.124;2023-09-07T08:05:32;97679.34;;;18.95;100.00
55914;BME280;58179;48.776;9.124;2023-09-07T08:07:59;97678.38;;;19.05;100.00
55914;BME280;58179;48.776;9.124;2023-09-07T08:10:25;97680.66;;;19.12;100.00
55914;BME280;58179;48.776;9.124;2023-09-07T08:12:53;97679.97;;;19.20;100.00
55914;BME280;58179;48.776;9.124;2023-09-07T08:15:22;97677.88;;;19.30;100.00
55914;BME280;58179;48.776;9.124;2023-09-07T08:17:51;97669.41;;;19.37;100.00
55914;BME280;58179;48.776;9.124;2023-09-07T08:20:17;97661.75;;;19.44;100.00
55914;BME280;58179;48.776;9.124;2023-09-07T08:22:43;97663.47;;;19.54;100.00
55914;BME280;58179;48.776;9.124;2023-09-07T08:25:12;97663.22;;;19.64;100.00
55914;BME280;58179;48.776;9.124;2023-09-07T08:27:41;97660.31;;;19.74;100.00
55914;BME280;58179;48.776;9.124;2023-09-07T08:30:13;97665.47;;;19.84;100.00
55914;BME280;58179;48.776;9.124;2023-09-07T08:32:43;97671.09;;;19.96;100.00
55914;BME280;58179;48.776;9.124;2023-09-07T08:35:11;97670.22;;;20.09;100.00
55914;BME280;58179;48.776;9.124;2023-09-07T08:37:39;97665.09;;;20.22;100.00
55914;BME280;58179;48.776;9.124;2023-09-07T08:40:07;97674.00;;;20.31;100.00
55914;BME280;58179;48.776;9.124;2023-09-07T08:42:35;97672.84;;;20.37;100.00
55914;BME280;58179;48.776;9.124;2023-09-07T08:45:03;97675.53;;;20.45;100.00
55914;BME280;58179;48.776;9.124;2023-09-07T08:47:35;97678.28;;;20.54;100.00
55914;BME280;58179;48.776;9.124;2023-09-07T08:50:05;97669.97;;;20.64;100.00
55914;BME280;58179;48.776;9.124;2023-09-07T08:52:34;97670.94;;;20.68;100.00
55914;BME280;58179;48.776;9.124;2023-09-07T08:55:01;97668.91;;;20.74;100.00
55914;BME280;58179;48.776;9.124;2023-09-07T08:57:30;97682.22;;;20.79;100.00
55914;BME280;58179;48.776;9.124;2023-09-07T08:59:57;97677.19;;;20.86;100.00
55914;BME280;58179;48.776;9.124;2023-09-07T09:02:24;97675.63;;;20.94;100.00
55914;BME280;58179;48.776;9.124;2023-09-07T09:04:51;97674.09;;;21.01;100.00
55914;BME280;58179;48.776;9.124;2023-09-07T09:07:20;97681.41;;;21.09;100.00
55914;BME280;58179;48.776;9.124;2023-09-07T09:09:47;97678.13;;;21.21;100.00
55914;BME280;58179;48.776;9.124;2023-09-07T09:12:13;97673.56;;;21.30;100.00
55914;BME280;58179;48.776;9.124;2023-09-07T09:14:42;97676.28;;;21.39;100.00
55914;BME280;58179;48.776;9.124;2023-09-07T09:17:11;97673.91;;;21.46;100.00
55914;BME280;58179;48.776;9.124;2023-09-07T09:19:39;97677.91;;;21.48;100.00
55914;BME280;58179;48.776;9.124;2023-09-07T09:22:06;97673.94;;;21.63;100.00
55914;BME280;58179;48.776;9.124;2023-09-07T09:24:34;97668.41;;;21.77;100.00
55914;BME280;58179;48.776;9.124;2023-09-07T09:27:01;97673.03;;;21.93;100.00
55914;BME280;58179;48.776;9.124;2023-09-07T09:29:27;97662.59;;;22.09;100.00
55914;BME280;58179;48.776;9.124;2023-09-07T09:31:53;97661.91;;;22.29;100.00
55914;BME280;58179;48.776;9.124;2023-09-07T09:34:23;97658.81;;;22.57;100.00
55914;BME280;58179;48.776;9.124;2023-09-07T09:36:50;97667.34;;;22.85;100.00
55914;BME280;58179;48.776;9.124;2023-09-07T09:39:23;97672.91;;;23.17;100.00
55914;BME280;58179;48.776;9.124;2023-09-07T09:41:52;97661.81;;;23.48;100.00
55914;BME280;58179;48.776;9.124;2023-09-07T09:44:21;97657.34;;;23.73;100.00
55914;BME280;58179;48.776;9.124;2023-09-07T09:46:52;97655.56;;;23.98;100.00
55914;BME280;58179;48.776;9.124;2023-09-07T09:49:20;97653.28;;;24.21;100.00
55914;BME280;58179;48.776;9.124;2023-09-07T09:51:49;97640.72;;;24.37;100.00
55914;BME280;58179;48.776;9.124;2023-09-07T09:54:18;97648.88;;;24.49;100.00
55914;BME280;58179;48.776;9.124;2023-09-07T09:56:45;97649.13;;;24.56;100.00
55914;BME280;58179;48.776;9.124;2023-09-07T09:59:13;97652.72;;;24.60;100.00
55914;BME280;58179;48.776;9.124;2023-09-07T10:01:43;97648.91;;;24.61;100.00
55914;BME280;58179;48.776;9.124;2023-09-07T10:04:11;97648.25;;;24.64;100.00
55914;BME280;58179;48.776;9.124;2023-09-07T10:06:39;97651.06;;;24.68;100.00
55914;BME280;58179;48.776;9.124;2023-09-07T10:09:06;97651.50;;;24.70;100.00
55914;BME280;58179;48.776;9.124;2023-09-07T10:11:34;97650.41;;;24.71;100.00
55914;BME280;58179;48.776;9.124;2023-09-07T10:14:01;97649.13;;;24.68;100.00
55914;BME280;58179;48.776;9.124;2023-09-07T10:16:41;97656.38;;;24.64;100.00
55914;BME280;58179;48.776;9.124;2023-09-07T10:19:15;97647.78;;;24.62;100.00
55914;BME280;58179;48.776;9.124;2023-09-07T10:21:42;97644.94;;;24.59;100.00
55914;BME280;58179;48.776;9.124;2023-09-07T10:24:08;97643.03;;;24.59;100.00
55914;BME280;58179;48.776;9.124;2023-09-07T10:26:35;97638.41;;;24.60;100.00
55914;BME280;58179;48.776;9.124;2023-09-07T10:29:01;97651.38;;;24.66;100.00
55914;BME280;58179;48.776;9.124;2023-09-07T10:31:31;97629.06;;;24.69;100.00
55914;BME280;58179;48.776;9.124;2023-09-07T10:34:07;97630.66;;;24.71;100.00
55914;BME280;58179;48.776;9.124;2023-09-07T10:36:34;97633.09;;;24.51;100.00
55914;BME280;58179;48.776;9.124;2023-09-07T10:39:01;97624.31;;;24.54;100.00
55914;BME280;58179;48.776;9.124;2023-09-07T10:41:28;97628.03;;;24.62;100.00
55914;BME280;58179;48.776;9.124;2023-09-07T10:43:55;97625.00;;;24.63;100.00
55914;BME280;58179;48.776;9.124;2023-09-07T10:46:22;97620.63;;;24.71;100.00
55914;BME280;58179;48.776;9.124;2023-09-07T10:48:51;97627.38;;;24.65;100.00
55914;BME280;58179;48.776;9.124;2023-09-07T10:51:17;97617.22;;;24.62;100.00
55914;BME280;58179;48.776;9.124;2023-09-07T10:53:44;97611.56;;;24.67;100.00
55914;BME280;58179;48.776;9.124;2023-09-07T10:56:10;97616.56;;;24.77;100.00
55914;BME280;58179;48.776;9.124;2023-09-07T10:58:37;97617.91;;;24.83;100.00
55914;BME280;58179;48.776;9.124;2023-09-07T11:01:10;97611.84;;;24.98;100.00
55914;BME280;58179;48.776;9.124;2023-09-07T11:03:37;97612.19;;;25.09;100.00
55914;BME280;58179;48.776;9.124;2023-09-07T11:06:08;97606.75;;;25.21;100.00
55914;BME280;58179;48.776;9.124;2023-09-07T11:08:35;97603.47;;;25.28;100.00
55914;BME280;58179;48.776;9.124;2023-09-07T11:11:02;97606.50;;;25.26;100.00
55914;BME280;58179;48.776;9.124;2023-09-07T11:13:29;97608.75;;;25.36;100.00
55914;BME280;58179;48.776;9.124;2023-09-07T11:15:55;97610.09;;;25.42;100.00
55914;BME280;58179;48.776;9.124;2023-09-07T11:18:22;97611.09;;;25.50;100.00
55914;BME280;58179;48.776;9.124;2023-09-07T11:20:49;97603.88;;;25.54;100.00
55914;BME280;58179;48.776;9.124;2023-09-07T11:23:18;97596.53;;;25.55;100.00
55914;BME280;58179;48.776;9.124;2023-09-07T11:25:45;97598.00;;;25.52;100.00
55914;BME280;58179;48.776;9.124;2023-09-07T11:28:12;97592.81;;;25.59;100.00
55914;BME280;58179;48.776;9.124;2023-09-07T11:30:49;97594.25;;;25.57;100.00
55914;BME280;58179;48.776;9.124;2023-09-07T11:33:16;97590.22;;;25.63;100.00
55914;BME280;58179;48.776;9.124;2023-09-07T11:35:44;97593.66;;;25.75;100.00
55914;BME280;58179;48.776;9.124;2023-09-07T11:38:14;97593.38;;;25.93;100.00
55914;BME280;58179;48.776;9.124;2023-09-07T11:40:42;97594.97;;;26.09;100.00
55914;BME280;58179;48.776;9.124;2023-09-07T11:43:10;97592.44;;;26.29;100.00
55914;BME280;58179;48.776;9.124;2023-09-07T11:45:36;97597.28;;;26.51;100.00
55914;BME280;58179;48.776;9.124;2023-09-07T11:48:03;97599.81;;;26.75;100.00
55914;BME280;58179;48.776;9.124;2023-09-07T11:50:29;97596.06;;;26.95;100.00
55914;BME280;58179;48.776;9.124;2023-09-07T11:52:56;97597.63;;;27.12;100.00
55914;BME280;58179;48.776;9.124;2023-09-07T11:55:22;97595.44;;;27.37;100.00
55914;BME280;58179;48.776;9.124;2023-09-07T11:57:50;97586.25;;;27.61;100.00
55914;BME280;58179;48.776;9.124;2023-09-07T12:00:18;97586.91;;;27.93;100.00
55914;BME280;58179;48.776;9.124;2023-09-07T12:02:45;97581.19;;;28.17;100.00
55914;BME280;58179;48.776;9.124;2023-09-07T12:05:11;97568.63;;;28.55;100.00
55914;BME280;58179;48.776;9.124;2023-09-07T12:07:41;97574.66;;;28.90;100.00
55914;BME280;58179;48.776;9.124;2023-09-07T12:10:07;97571.19;;;29.19;100.00
55914;BME280;58179;48.776;9.124;2023-09-07T12:12:37;97573.94;;;29.46;100.00
55914;BME280;58179;48.776;9.124;2023-09-07T12:15:05;97573.41;;;29.67;100.00
55914;BME280;58179;48.776;9.124;2023-09-07T12:17:32;97576.81;;;29.90;100.00
55914;BME280;58179;48.776;9.124;2023-09-07T12:19:58;97566.50;;;30.10;100.00
55914;BME280;58179;48.776;9.124;2023-09-07T12:22:24;97567.56;;;30.35;100.00
55914;BME280;58179;48.776;9.124;2023-09-07T12:24:51;97575.03;;;30.45;100.00
55914;BME280;58179;48.776;9.124;2023-09-07T12:27:17;97567.03;;;30.63;100.00
55914;BME280;58179;48.776;9.124;2023-09-07T12:29:44;97571.50;;;30.85;100.00
55914;BME280;58179;48.776;9.124;2023-09-07T12:32:12;97567.81;;;31.14;100.00
55914;BME280;58179;48.776;9.124;2023-09-07T12:34:38;97559.78;;;31.43;99.33
55914;BME280;58179;48.776;9.124;2023-09-07T12:37:06;97566.22;;;31.72;97.06
55914;BME280;58179;48.776;9.124;2023-09-07T12:39:32;97565.47;;;31.96;95.05
55914;BME280;58179;48.776;9.124;2023-09-07T12:41:58;97555.63;;;31.63;81.73
55914;BME280;58179;48.776;9.124;2023-09-07T12:44:25;97554.50;;;31.89;83.77
55914;BME280;58179;48.776;9.124;2023-09-07T12:46:51;97552.28;;;32.23;85.93
55914;BME280;58179;48.776;9.124;2023-09-07T12:49:19;97553.47;;;32.57;86.26